This is the latest recevied weather packets stored in our database for station/object 1NW106. If no packets are shown the sender has not sent any weather packets the latest 10 day(s).
| Time | Temp. | Humidity | Pressure | Rain* | Wind** | Luminosity | Snow |
|---|---|---|---|---|---|---|---|
| 1787836769 | 26.67° C | 90% | 1006.9 hPa | 14.73 mm | - | - | - |
| 1787836169 | 26.67° C | 91% | 1006.7 hPa | 14.73 mm | - | - | - |
| 1787835569 | 26.67° C | 92% | 1006.3 hPa | 14.73 mm | - | - | - |
| 1787834969 | 26.67° C | 92% | 1006.2 hPa | 14.73 mm | - | - | - |
| 1787834371 | 26.67° C | 91% | 1006.3 hPa | 14.73 mm | - | - | - |
| 1787833769 | 26.67° C | 92% | 1006 hPa | 14.73 mm | - | - | - |
| 1787833170 | 26.67° C | 92% | 1005.7 hPa | 14.73 mm | - | - | - |
| 1787832569 | 26.67° C | 95% | 1005.1 hPa | 14.73 mm | - | - | - |
| 1787831969 | 26.11° C | 98% | 1004.4 hPa | 14.73 mm | - | - | - |
| 1787831370 | 26.11° C | 99% | 1003.7 hPa | 14.73 mm | - | - | - |
| 1787830769 | 26.11° C | 99% | 1003.6 hPa | 14.73 mm | - | - | - |
| 1787830170 | 26.67° C | 99% | 1003.5 hPa | 14.73 mm | - | - | - |
| 1787829571 | 26.67° C | 98% | 1003.7 hPa | 14.73 mm | - | - | - |
| 1787828971 | 26.67° C | 98% | 1003.6 hPa | 14.73 mm | - | - | - |
| 1787828369 | 26.67° C | 97% | 1003.7 hPa | 14.73 mm | - | - | - |
| 1787827775 | 26.67° C | 98% | 1003.4 hPa | 14.73 mm | - | - | - |
| 1787827169 | 26.67° C | 98% | 1003.3 hPa | 14.73 mm | - | - | - |
| 1787826575 | 26.67° C | 99% | 1003.1 hPa | 14.73 mm | - | - | - |
| 1787825969 | 26.67° C | 97% | 1003.3 hPa | 14.73 mm | - | - | - |
| 1787825369 | 28.89° C | 85% | 1004.7 hPa | 14.73 mm | - | - | - |
| 1787824771 | 28.89° C | 82% | 1005.2 hPa | 14.73 mm | - | - | - |
| 1787824169 | 28.89° C | 83% | 1005.2 hPa | 14.73 mm | - | - | - |
| 1787823569 | 28.89° C | 82% | 1005.2 hPa | 14.73 mm | - | - | - |
| 1787822969 | 28.89° C | 81% | 1005.2 hPa | 14.73 mm | - | - | - |
| 1787822369 | 28.89° C | 81% | 1005.2 hPa | 14.73 mm | - | - | - |
* Rain latest hour (hover to see other rain measurements)
** Current wind speed in m/s (hover to see current wind gust speed)